Maldives Meteorological Service

SYNOP

Station Code SYNOP
43555
AAXX 21064 43555 12475 62508 10315 20259 30087 40089 60001 81202 333 59009 81818 86078=
43533
AAXX 21064 43533 11470 72507 10295 20261 30087 40089 69921 70282 82248 333 59008 82818 86275=
43577
AAXX 21064 43577 12465 72704 10315 20262 30088 40090 60001 81132 333 59011 81819 87077=
43588
AAXX 21064 43588 12465 72506 10305 20263 30090 40091 60001 82236 333 59008 82818 86076=
43599
AAXX 21064 43599 12462 42507 10304 20262 30093 40095 60001 82231 333 59011 82818=
Last Updated : 2017-08-21 11:01:01